createdAt,value
2019-05-26T00:00:15.615Z,9.72
2019-05-26T00:02:48.354Z,9.67
2019-05-26T00:05:21.128Z,9.63
2019-05-26T00:07:53.928Z,9.56
2019-05-26T00:10:26.739Z,9.47
2019-05-26T00:12:59.437Z,9.45
2019-05-26T00:15:32.171Z,9.45
2019-05-26T00:18:04.967Z,9.45
2019-05-26T00:20:37.606Z,9.32
2019-05-26T00:23:10.468Z,9.17
2019-05-26T00:25:43.102Z,8.98
2019-05-26T00:28:15.694Z,9.05
2019-05-26T00:30:48.737Z,8.94
2019-05-26T00:33:21.470Z,8.86
2019-05-26T00:35:54.109Z,8.75
2019-05-26T00:38:26.786Z,8.69
2019-05-26T00:40:59.465Z,8.79
2019-05-26T00:43:32.244Z,8.78
2019-05-26T00:46:05.076Z,8.73
2019-05-26T00:48:37.824Z,8.72
2019-05-26T00:51:10.490Z,8.68
2019-05-26T00:53:43.166Z,8.72
2019-05-26T00:56:15.802Z,8.74
2019-05-26T00:58:48.437Z,8.81
2019-05-26T01:01:21.159Z,8.89
2019-05-26T01:03:53.886Z,8.96
2019-05-26T01:06:26.596Z,9.01
2019-05-26T01:08:59.317Z,8.87
2019-05-26T01:11:32.048Z,8.81
2019-05-26T01:14:05.364Z,8.69
2019-05-26T01:16:37.975Z,8.61
2019-05-26T01:19:10.796Z,8.36
2019-05-26T01:21:43.477Z,8.27
2019-05-26T01:24:16.129Z,8.29
2019-05-26T01:26:48.834Z,8.37
2019-05-26T01:29:21.596Z,8.48
2019-05-26T01:31:54.338Z,8.55
2019-05-26T01:34:27.037Z,8.69
2019-05-26T01:37:00.211Z,8.85
2019-05-26T01:39:32.954Z,8.91
2019-05-26T01:42:05.729Z,8.93
2019-05-26T01:44:38.351Z,8.97
2019-05-26T01:47:11.246Z,8.97
2019-05-26T01:49:43.813Z,9.01
2019-05-26T01:52:16.502Z,9.01
2019-05-26T01:54:49.199Z,9.05
2019-05-26T01:57:21.952Z,9.06
2019-05-26T01:59:54.603Z,9.14
2019-05-26T02:02:27.302Z,9.16
2019-05-26T02:04:59.977Z,9.18
2019-05-26T02:07:32.688Z,9.15
2019-05-26T02:10:06.155Z,9.07
2019-05-26T02:12:38.784Z,9.03
2019-05-26T02:15:13.416Z,8.98
2019-05-26T02:17:46.097Z,9.03
2019-05-26T02:20:20.286Z,9.10
2019-05-26T02:22:52.964Z,9.20
2019-05-26T02:25:27.431Z,9.26
2019-05-26T02:28:00.244Z,9.26
2019-05-26T02:30:32.967Z,9.28
2019-05-26T02:33:05.940Z,9.29
2019-05-26T02:35:38.673Z,9.36
2019-05-26T02:38:11.409Z,9.41
2019-05-26T02:40:44.157Z,9.47
2019-05-26T02:43:16.889Z,9.51
2019-05-26T02:45:49.653Z,9.57
2019-05-26T02:48:22.345Z,9.57
2019-05-26T02:50:55.126Z,9.60
2019-05-26T02:53:27.926Z,9.61
2019-05-26T02:56:00.991Z,9.66
2019-05-26T02:58:33.670Z,9.69
2019-05-26T03:01:06.662Z,9.71
2019-05-26T03:03:39.539Z,9.72
2019-05-26T03:06:14.299Z,9.73
2019-05-26T03:08:48.380Z,9.77
2019-05-26T03:11:24.386Z,9.76
2019-05-26T03:14:00.413Z,9.73
2019-05-26T03:16:37.706Z,9.74
2019-05-26T03:19:10.444Z,9.76
2019-05-26T03:21:47.335Z,9.79
2019-05-26T03:24:23.388Z,9.81
2019-05-26T03:26:56.796Z,9.77
2019-05-26T03:29:29.636Z,9.72
2019-05-26T03:32:02.453Z,9.72
2019-05-26T03:34:35.207Z,9.69
2019-05-26T03:37:08.013Z,9.68
2019-05-26T03:39:45.186Z,9.67
2019-05-26T03:42:15.257Z,9.73
2019-05-26T03:44:47.976Z,9.77
2019-05-26T03:47:20.690Z,9.84
2019-05-26T03:49:53.504Z,9.90
2019-05-26T03:52:26.828Z,9.94
2019-05-26T03:54:59.503Z,9.97
2019-05-26T03:57:32.295Z,10.04
2019-05-26T04:00:06.134Z,9.97
2019-05-26T04:02:39.003Z,10.03
2019-05-26T04:05:11.712Z,10.06
2019-05-26T04:07:44.423Z,10.10
2019-05-26T04:10:18.283Z,10.17
2019-05-26T04:12:50.981Z,10.18
2019-05-26T04:15:23.652Z,10.20
2019-05-26T04:17:56.876Z,10.25
2019-05-26T04:20:29.601Z,10.33
2019-05-26T04:23:02.254Z,10.30
2019-05-26T04:25:35.138Z,10.32
2019-05-26T04:28:07.921Z,10.48
2019-05-26T04:30:40.693Z,10.58
2019-05-26T04:33:13.494Z,10.52
2019-05-26T04:35:46.255Z,10.48
2019-05-26T04:38:18.967Z,10.52
2019-05-26T04:40:51.640Z,10.51
2019-05-26T04:43:24.367Z,10.55
2019-05-26T04:45:57.170Z,10.60
2019-05-26T04:48:29.888Z,10.60
2019-05-26T04:51:02.588Z,10.63
2019-05-26T04:53:35.311Z,10.68
2019-05-26T04:56:08.129Z,10.81
2019-05-26T04:58:40.864Z,10.86
2019-05-26T05:01:13.669Z,10.90
2019-05-26T05:03:46.576Z,10.86
2019-05-26T05:06:19.252Z,10.90
2019-05-26T05:08:52.013Z,10.77
2019-05-26T05:11:24.802Z,10.87
2019-05-26T05:13:57.676Z,11.00
2019-05-26T05:16:30.408Z,11.00
2019-05-26T05:19:03.146Z,10.87
2019-05-26T05:21:35.975Z,10.99
2019-05-26T05:24:09.013Z,10.98
2019-05-26T05:26:41.691Z,11.11
2019-05-26T05:29:14.395Z,11.14
2019-05-26T05:31:47.199Z,11.23
2019-05-26T05:34:19.906Z,11.11
2019-05-26T05:36:52.642Z,11.09
2019-05-26T05:39:25.381Z,10.90
2019-05-26T05:41:58.081Z,11.03
2019-05-26T05:44:30.849Z,11.19
2019-05-26T05:47:03.632Z,11.44
2019-05-26T05:49:36.537Z,11.58
2019-05-26T05:52:09.231Z,11.43
2019-05-26T05:54:42.026Z,11.70
2019-05-26T05:57:14.716Z,11.93
2019-05-26T05:59:47.526Z,12.03
2019-05-26T06:02:20.401Z,11.83
2019-05-26T06:04:53.273Z,12.04
2019-05-26T06:07:26.039Z,12.03
2019-05-26T06:09:58.779Z,11.99
2019-05-26T06:12:31.548Z,12.03
2019-05-26T06:15:05.253Z,12.09
2019-05-26T06:17:37.988Z,11.98
2019-05-26T06:20:11.780Z,11.90
2019-05-26T06:22:44.558Z,11.87
2019-05-26T06:25:17.518Z,11.99
2019-05-26T06:27:50.331Z,12.00
2019-05-26T06:30:23.303Z,12.15
2019-05-26T06:32:56.066Z,12.19
2019-05-26T06:35:32.457Z,12.50
2019-05-26T06:38:03.169Z,12.27
2019-05-26T06:40:35.863Z,12.52
2019-05-26T06:43:08.769Z,12.52
2019-05-26T06:45:41.549Z,12.51
2019-05-26T06:48:14.363Z,12.52
2019-05-26T06:50:47.219Z,12.52
2019-05-26T06:53:19.942Z,12.97
2019-05-26T06:55:52.795Z,13.07
2019-05-26T06:58:25.621Z,13.11
2019-05-26T07:00:58.320Z,13.39
2019-05-26T07:03:31.091Z,13.34
2019-05-26T07:06:03.882Z,13.15
2019-05-26T07:08:36.648Z,13.66
2019-05-26T07:11:09.343Z,13.74
2019-05-26T07:13:42.206Z,13.62
2019-05-26T07:16:15.192Z,13.97
2019-05-26T07:18:48.134Z,14.06
2019-05-26T07:21:20.941Z,14.07
2019-05-26T07:23:53.685Z,14.59
2019-05-26T07:26:26.540Z,15.49
2019-05-26T07:28:59.410Z,15.88
2019-05-26T07:31:32.496Z,15.94
2019-05-26T07:34:05.391Z,15.93
2019-05-26T07:36:38.084Z,15.96
2019-05-26T07:39:11.228Z,16.19
2019-05-26T07:41:43.985Z,16.70
2019-05-26T07:44:16.709Z,16.21
2019-05-26T07:46:49.492Z,15.61
2019-05-26T07:49:22.378Z,16.12
2019-05-26T07:51:55.195Z,15.92
2019-05-26T07:54:27.930Z,16.32
2019-05-26T07:57:00.681Z,16.61
2019-05-26T07:59:33.479Z,15.79
2019-05-26T08:02:05.920Z,15.93
2019-05-26T08:04:38.757Z,15.99
2019-05-26T08:07:11.619Z,16.84
2019-05-26T08:09:44.434Z,18.08
2019-05-26T08:12:26.890Z,18.84
2019-05-26T08:14:52.846Z,20.12
2019-05-26T08:17:25.646Z,19.88
2019-05-26T08:19:58.416Z,20.38
2019-05-26T08:22:31.135Z,19.93
2019-05-26T08:25:04.381Z,20.97
2019-05-26T08:27:37.208Z,20.47
2019-05-26T08:30:11.320Z,20.29
2019-05-26T08:32:44.165Z,20.47
2019-05-26T08:35:17.013Z,20.74
2019-05-26T08:37:49.896Z,21.75
2019-05-26T08:40:22.710Z,22.02
2019-05-26T08:42:55.753Z,22.61
2019-05-26T08:45:28.578Z,22.08
2019-05-26T08:48:03.717Z,22.71
2019-05-26T08:50:36.494Z,23.21
2019-05-26T08:53:09.514Z,23.18
2019-05-26T08:55:42.262Z,23.05
2019-05-26T08:58:15.189Z,23.68
2019-05-26T09:00:48.112Z,22.83
2019-05-26T09:03:20.854Z,23.22
2019-05-26T09:05:53.580Z,24.24
2019-05-26T09:08:26.968Z,24.20
2019-05-26T09:10:59.768Z,24.18
2019-05-26T09:13:32.560Z,23.51
2019-05-26T09:16:05.545Z,23.47
2019-05-26T09:18:38.359Z,24.34
2019-05-26T09:21:11.388Z,25.53
2019-05-26T09:23:44.393Z,26.03
2019-05-26T09:26:17.201Z,25.34
2019-05-26T09:28:49.913Z,25.46
2019-05-26T09:31:22.657Z,25.15
2019-05-26T09:33:55.385Z,26.03
2019-05-26T09:36:28.090Z,25.98
2019-05-26T09:39:00.959Z,26.06
2019-05-26T09:41:33.682Z,25.72
2019-05-26T09:44:06.576Z,24.93
2019-05-26T09:46:39.318Z,22.02
2019-05-26T09:49:12.189Z,20.97
2019-05-26T09:51:45.386Z,20.98
2019-05-26T09:54:18.150Z,22.67
2019-05-26T09:56:50.869Z,23.44
2019-05-26T09:59:23.780Z,23.39
2019-05-26T10:01:56.610Z,23.92
2019-05-26T10:04:29.338Z,22.93
2019-05-26T10:07:02.141Z,23.74
2019-05-26T10:09:35.246Z,24.96
2019-05-26T10:12:08.264Z,25.20
2019-05-26T10:14:42.033Z,25.19
2019-05-26T10:17:14.773Z,25.66
2019-05-26T10:19:47.638Z,25.65
2019-05-26T10:22:20.478Z,25.42
2019-05-26T10:24:53.173Z,23.35
2019-05-26T10:27:25.951Z,22.18
2019-05-26T10:29:58.720Z,21.04
2019-05-26T10:32:31.646Z,20.82
2019-05-26T10:35:04.617Z,20.46
2019-05-26T10:37:37.323Z,20.31
2019-05-26T10:40:12.291Z,20.25
2019-05-26T10:42:44.980Z,20.18
2019-05-26T10:45:18.237Z,20.37
2019-05-26T10:47:51.013Z,20.31
2019-05-26T10:50:23.882Z,20.46
2019-05-26T10:52:56.984Z,20.51
2019-05-26T10:55:29.792Z,20.43
2019-05-26T10:58:02.556Z,20.43
2019-05-26T11:00:35.254Z,20.31
2019-05-26T11:03:08.172Z,19.98
2019-05-26T11:05:40.956Z,20.37
2019-05-26T11:08:13.775Z,20.32
2019-05-26T11:10:46.497Z,20.06
2019-05-26T11:13:19.240Z,20.62
2019-05-26T11:15:52.075Z,20.58
2019-05-26T11:18:24.816Z,21.60
2019-05-26T11:20:57.590Z,21.10
2019-05-26T11:23:30.384Z,22.02
2019-05-26T11:26:03.208Z,23.26
2019-05-26T11:28:35.905Z,23.57
2019-05-26T11:31:08.778Z,23.33
2019-05-26T11:33:41.819Z,22.06
2019-05-26T11:36:14.638Z,22.00
2019-05-26T11:38:47.472Z,21.10
2019-05-26T11:41:20.245Z,21.16
2019-05-26T11:43:53.037Z,21.76
2019-05-26T11:46:25.757Z,21.62
2019-05-26T11:48:58.557Z,21.67
2019-05-26T11:51:31.333Z,21.93
2019-05-26T11:54:04.228Z,21.68
2019-05-26T11:56:36.883Z,21.16
2019-05-26T11:59:09.627Z,20.90
2019-05-26T12:01:42.433Z,21.33
2019-05-26T12:04:15.179Z,21.45
2019-05-26T12:06:47.952Z,21.20
2019-05-26T12:09:20.746Z,20.55
2019-05-26T12:11:53.585Z,20.43
2019-05-26T12:14:34.809Z,20.92
2019-05-26T12:17:05.491Z,20.54
2019-05-26T12:19:38.195Z,20.22
2019-05-26T12:22:11.029Z,20.07
2019-05-26T12:24:43.806Z,20.35
2019-05-26T12:27:16.105Z,20.77
2019-05-26T12:29:48.857Z,20.25
2019-05-26T12:32:21.576Z,20.29
2019-05-26T12:34:54.270Z,20.41
2019-05-26T12:37:27.058Z,20.60
2019-05-26T12:39:59.778Z,20.60
2019-05-26T12:42:32.484Z,20.62
2019-05-26T12:45:06.006Z,20.80
2019-05-26T12:47:38.810Z,20.37
2019-05-26T12:50:14.302Z,20.42
2019-05-26T12:52:47.082Z,21.24
2019-05-26T12:55:19.862Z,21.45
2019-05-26T12:57:52.664Z,21.08
2019-05-26T13:00:25.587Z,20.49
2019-05-26T13:03:00.784Z,20.81
2019-05-26T13:05:33.545Z,20.85
2019-05-26T13:08:06.767Z,20.57
2019-05-26T13:10:39.592Z,20.96
2019-05-26T13:13:12.405Z,21.38
2019-05-26T13:15:46.212Z,21.19
2019-05-26T13:18:19.011Z,21.72
2019-05-26T13:20:51.980Z,21.91
2019-05-26T13:23:24.726Z,21.60
2019-05-26T13:25:57.464Z,22.34
2019-05-26T13:28:30.275Z,23.39
2019-05-26T13:31:02.989Z,23.62
2019-05-26T13:33:35.801Z,25.46
2019-05-26T13:36:08.571Z,26.83
2019-05-26T13:38:41.239Z,26.88
2019-05-26T13:41:13.961Z,27.04
2019-05-26T13:43:46.001Z,25.88
2019-05-26T13:46:18.795Z,27.41
2019-05-26T13:48:53.342Z,26.80
2019-05-26T13:51:26.065Z,26.82
2019-05-26T13:53:58.056Z,27.15
2019-05-26T13:56:30.882Z,25.98
2019-05-26T13:59:03.867Z,26.73
2019-05-26T14:01:36.609Z,27.06
2019-05-26T14:04:09.358Z,25.97
2019-05-26T14:06:42.298Z,26.46
2019-05-26T14:09:15.152Z,26.33
2019-05-26T14:11:47.981Z,26.22
2019-05-26T14:14:20.803Z,26.15
2019-05-26T14:16:56.182Z,26.94
2019-05-26T14:19:31.936Z,26.64
2019-05-26T14:22:04.668Z,27.09
2019-05-26T14:24:50.904Z,26.14
2019-05-26T14:27:11.924Z,27.11
2019-05-26T14:29:44.819Z,27.93
2019-05-26T14:32:17.472Z,26.98
2019-05-26T14:34:49.729Z,27.72
2019-05-26T14:37:22.447Z,27.39
2019-05-26T14:39:55.191Z,28.05
2019-05-26T14:42:27.823Z,28.73
2019-05-26T14:45:03.901Z,28.12
2019-05-26T14:47:34.964Z,28.18
2019-05-26T14:50:10.335Z,28.91
2019-05-26T14:52:43.021Z,28.92
2019-05-26T14:55:16.058Z,29.91
2019-05-26T14:57:48.914Z,28.69
2019-05-26T15:00:22.634Z,26.72
2019-05-26T15:02:55.331Z,26.40
2019-05-26T15:05:28.042Z,26.73
2019-05-26T15:08:00.806Z,26.04
2019-05-26T15:10:33.533Z,26.41
2019-05-26T15:13:06.376Z,26.02
2019-05-26T15:15:39.185Z,24.60
2019-05-26T15:18:12.099Z,24.08
2019-05-26T15:20:44.914Z,24.13
2019-05-26T15:23:17.966Z,24.30
2019-05-26T15:25:53.761Z,23.87
2019-05-26T15:28:26.646Z,23.26
2019-05-26T15:30:59.591Z,23.41
2019-05-26T15:33:32.369Z,23.03
2019-05-26T15:36:05.072Z,22.11
2019-05-26T15:38:43.086Z,21.60
2019-05-26T15:41:12.291Z,21.52
2019-05-26T15:43:44.991Z,21.56
2019-05-26T15:46:25.165Z,21.40
2019-05-26T15:48:52.128Z,20.62
2019-05-26T15:51:27.113Z,20.52
2019-05-26T15:53:59.919Z,20.38
2019-05-26T15:56:32.670Z,20.27
2019-05-26T15:59:05.494Z,20.42
2019-05-26T16:01:38.355Z,20.39
2019-05-26T16:04:11.129Z,20.41
2019-05-26T16:06:43.843Z,20.37
2019-05-26T16:09:16.684Z,20.49
2019-05-26T16:11:49.538Z,20.60
2019-05-26T16:14:23.535Z,20.72
2019-05-26T16:16:57.338Z,20.74
2019-05-26T16:19:30.040Z,20.79
2019-05-26T16:22:02.835Z,20.76
2019-05-26T16:24:35.678Z,21.02
2019-05-26T16:27:18.684Z,21.30
2019-05-26T16:29:42.908Z,20.81
2019-05-26T16:32:18.784Z,21.22
2019-05-26T16:34:50.302Z,20.88
2019-05-26T16:37:23.045Z,20.99
2019-05-26T16:39:56.111Z,21.43
2019-05-26T16:42:28.933Z,21.23
2019-05-26T16:45:01.670Z,20.81
2019-05-26T16:47:34.384Z,20.69
2019-05-26T16:50:08.959Z,20.58
2019-05-26T16:52:41.054Z,20.47
2019-05-26T16:55:15.209Z,20.22
2019-05-26T16:57:47.998Z,20.06
2019-05-26T17:00:21.789Z,19.92
2019-05-26T17:02:54.515Z,19.96
2019-05-26T17:05:27.229Z,19.91
2019-05-26T17:08:00.185Z,19.81
2019-05-26T17:10:32.903Z,19.64
2019-05-26T17:13:05.619Z,19.35
2019-05-26T17:15:39.948Z,19.04
2019-05-26T17:18:12.842Z,18.82
2019-05-26T17:20:45.580Z,18.81
2019-05-26T17:23:18.356Z,18.73
2019-05-26T17:25:51.186Z,18.60
2019-05-26T17:28:23.895Z,18.54
2019-05-26T17:30:56.733Z,18.51
2019-05-26T17:33:29.521Z,18.47
2019-05-26T17:36:07.400Z,18.29
2019-05-26T17:38:40.144Z,18.15
2019-05-26T17:41:13.042Z,18.19
2019-05-26T17:43:45.781Z,18.10
2019-05-26T17:46:18.557Z,18.05
2019-05-26T17:48:51.265Z,18.10
2019-05-26T17:51:23.961Z,18.19
2019-05-26T17:53:57.177Z,18.07
2019-05-26T17:56:32.461Z,18.12
2019-05-26T17:59:05.446Z,17.87
2019-05-26T18:01:38.179Z,17.73
2019-05-26T18:04:10.997Z,17.51
2019-05-26T18:06:43.690Z,17.31
2019-05-26T18:09:16.473Z,17.14
2019-05-26T18:11:53.625Z,16.79
2019-05-26T18:14:26.303Z,16.43
2019-05-26T18:16:59.229Z,16.06
2019-05-26T18:19:34.053Z,15.86
2019-05-26T18:22:07.433Z,15.73
2019-05-26T18:24:53.296Z,15.37
2019-05-26T18:27:15.942Z,15.07
2019-05-26T18:29:48.730Z,14.78
2019-05-26T18:32:21.435Z,14.65
2019-05-26T18:34:54.351Z,14.48
2019-05-26T18:37:27.060Z,14.47
2019-05-26T18:39:59.740Z,14.26
2019-05-26T18:42:32.532Z,13.97
2019-05-26T18:45:05.642Z,13.78
2019-05-26T18:47:37.969Z,13.56
2019-05-26T18:50:13.554Z,13.43
2019-05-26T18:52:46.298Z,13.43
2019-05-26T18:55:19.060Z,13.23
2019-05-26T18:57:52.997Z,13.10
2019-05-26T19:00:30.918Z,13.05
2019-05-26T19:03:00.245Z,12.99
2019-05-26T19:05:38.061Z,12.88
2019-05-26T19:08:07.897Z,12.69
2019-05-26T19:10:40.715Z,12.62
2019-05-26T19:13:13.689Z,12.54
2019-05-26T19:15:46.532Z,12.36
2019-05-26T19:18:20.742Z,12.25
2019-05-26T19:20:53.676Z,12.11
2019-05-26T19:23:26.639Z,11.99
2019-05-26T19:26:02.536Z,11.87
2019-05-26T19:28:35.279Z,11.69
2019-05-26T19:31:07.985Z,11.60
2019-05-26T19:33:40.737Z,11.48
2019-05-26T19:36:13.527Z,11.38
2019-05-26T19:38:46.256Z,11.39
2019-05-26T19:41:18.948Z,11.50
2019-05-26T19:43:51.711Z,11.57
2019-05-26T19:46:25.288Z,11.80
2019-05-26T19:48:58.066Z,12.12
2019-05-26T19:51:31.021Z,12.08
2019-05-26T19:54:06.362Z,12.07
2019-05-26T19:56:38.340Z,12.03
2019-05-26T19:59:11.212Z,12.16
2019-05-26T20:01:44.173Z,12.21
2019-05-26T20:04:16.994Z,12.25
2019-05-26T21:42:51.799Z,9.45
2019-05-26T21:45:24.502Z,9.39
2019-05-26T21:47:57.188Z,9.43
2019-05-26T21:50:29.831Z,9.44
2019-05-26T21:53:02.584Z,9.42
2019-05-26T21:55:35.417Z,9.40
2019-05-26T21:58:08.303Z,9.35
2019-05-26T22:00:44.955Z,9.38
2019-05-26T22:03:17.721Z,9.37
2019-05-26T22:05:50.309Z,9.39
2019-05-26T22:08:23.045Z,9.40
2019-05-26T22:10:55.791Z,9.32
2019-05-26T22:13:27.791Z,9.29
2019-05-26T22:16:00.523Z,9.20
2019-05-26T22:18:34.232Z,9.15
2019-05-26T22:21:07.960Z,9.20
2019-05-26T22:23:41.913Z,8.95
2019-05-26T22:26:15.749Z,8.85
2019-05-26T22:28:49.321Z,8.82
2019-05-26T22:31:22.153Z,8.91
2019-05-26T22:33:55.734Z,8.90
2019-05-26T22:36:29.285Z,9.00
2019-05-26T22:39:02.665Z,9.00
2019-05-26T22:41:36.184Z,8.98
2019-05-26T22:44:10.150Z,8.89
2019-05-26T22:46:42.369Z,8.83
2019-05-26T22:49:30.966Z,8.73
2019-05-26T22:52:03.624Z,8.75
2019-05-26T22:54:36.607Z,8.72
2019-05-26T22:57:09.360Z,8.83
2019-05-26T22:59:42.008Z,8.77
2019-05-26T23:02:15.079Z,8.73
2019-05-26T23:04:47.782Z,8.77
2019-05-26T23:07:20.535Z,8.76
2019-05-26T23:09:53.187Z,8.73
2019-05-26T23:12:25.958Z,8.80
2019-05-26T23:14:58.710Z,8.72
2019-05-26T23:17:31.343Z,8.71
2019-05-26T23:20:04.207Z,8.67
2019-05-26T23:22:36.923Z,8.63
2019-05-26T23:25:10.552Z,8.59
2019-05-26T23:27:43.274Z,8.56
2019-05-26T23:30:16.795Z,8.45
2019-05-26T23:32:49.403Z,8.42
2019-05-26T23:35:22.080Z,8.43
2019-05-26T23:37:54.717Z,8.43
2019-05-26T23:40:27.340Z,8.40
2019-05-26T23:43:00.012Z,8.50
2019-05-26T23:45:32.652Z,8.36
2019-05-26T23:48:05.293Z,8.30
2019-05-26T23:50:38.061Z,8.28
2019-05-26T23:53:10.726Z,8.30
2019-05-26T23:55:43.453Z,8.30
2019-05-26T23:58:16.135Z,8.30
